x

Tyndall Afb Tower C (n4), Fl (sgof1) Weather Station

12:00am - Fri 26th May 2017 All times are CDT. -5 hours from GMT.

  • Wind
    8mph, 9mph gusts
  • Air Temp 73°f
  • Sea Pressure 1015.4mb
  • Tyndall Afb Tower C (n4), Fl
  • Tyndall Afb Tower C (n4), Fl

More Historic Weather Station data

Upgrade to MSW Pro to gain access to the past 30 days of data for over 8000 Wavebouys and Weather Stations around the globe.

Join Pro

Comparision Forecast

View Surf forecast
   
Fri 05/26 12:00am 8 9 mph 1015.4mb 73f
Thu 05/25 11:00pm 9 10 mph 1015.3mb 73f
10:00pm 11 13 mph 1014.6mb 73f
9:00pm 14 15 mph 1013.8mb 73f
8:00pm 14 16 mph 1013.6mb 73f
7:00pm 16 17 mph 1012.9mb 73f
6:00pm 16 18 mph 1012.4mb 73f
5:00pm 17 18 mph 1012.4mb 73f
4:00pm 16 20 mph 1012.3mb 72f
3:00pm 20 21 mph 1012.3mb 72f
2:00pm 17 21 mph 1012.6mb 72f
1:00pm 24 26 mph 1012.4mb 71f
12:00pm 21 23 mph 1012.3mb 71f
11:00am 20 24 mph 1012.4mb 71f
10:00am 18 20 mph 1012mb 71f
9:00am 16 17 mph 1011.7mb 70f
8:00am 21 25 mph 1010.9mb 69f
7:00am 21 22 mph 1010.2mb 69f
6:00am 20 22 mph 1009.2mb 69f
5:00am 18 21 mph 1008.2mb 70f
4:00am 26 30 mph 1007.2mb 74f
3:00am 30 32 mph 1006.7mb 74f
2:00am 26 30 mph 1006.8mb 74f
1:00am 23 25 mph 1007.2mb 74f
12:00am 28 31 mph 1007mb 74f
Wed 05/24 11:00pm 22 25 mph 1007.1mb 74f
10:00pm 30 32 mph 1006.4mb 74f
9:00pm 30 32 mph 1005.6mb 74f
8:00pm 28 31 mph 1004.6mb 74f
7:00pm 29 32 mph 1003.7mb 75f
6:00pm 26 28 mph 1003.4mb 76f
5:00pm 17 20 mph 1003.5mb 75f
4:00pm 25 30 mph 1003.4mb 73f
3:00pm 28 29 mph 1002.7mb 73f
2:00pm 28 30 mph 1003.4mb 73f
1:00pm 33 36 mph 1003.5mb 74f
12:00pm 32 34 mph 1004.8mb 70f
11:00am 17 18 mph 1005.2mb 74f
10:00am 21 24 mph 1005.5mb 72f
9:00am 20 22 mph 1006.2mb 70f
8:00am 30 32 mph 1005.5mb 70f
7:00am 17 18 mph 1003.9mb 77f
6:00am 20 21 mph 1004.9mb 76f
5:00am 15 16 mph 1005.5mb 76f
4:00am 18 20 mph 1006.6mb 77f
3:00am 21 23 mph 1007.2mb 76f
2:00am 23 24 mph 1007.7mb 76f
1:00am 22 23 mph 1008.2mb 76f
12:00am 22 23 mph 1008.3mb 76f
Tue 05/23 11:00pm 24 26 mph 1008.5mb 76f
10:00pm 31 33 mph 1009mb 77f
9:00pm 32 33 mph 1008.4mb 77f
8:00pm 24 25 mph 1008mb 78f
7:00pm 18 21 mph 1007.6mb 77f
6:00pm 23 25 mph 1008.5mb 78f
5:00pm 23 25 mph 1008.9mb 78f
4:00pm 25 28 mph 1008.8mb 78f
3:00pm 24 28 mph 1009.2mb 78f
2:00pm 23 24 mph 1010mb 78f
1:00pm 23 25 mph 1010.3mb 78f
12:00pm 22 24 mph 1010.7mb 78f
11:00am 22 23 mph 1010.9mb 78f
10:00am 21 22 mph 1010.9mb 77f
9:00am 20 22 mph 1010.9mb 77f
8:00am 21 23 mph 1011.4mb 77f
7:00am 18 20 mph 1011.8mb 77f
6:00am 16 18 mph 1011.5mb 77f
5:00am 16 17 mph 1011.9mb 77f
4:00am 16 17 mph 1012.1mb 77f
3:00am 15 16 mph 1012.1mb 77f
2:00am 15 16 mph 1012.8mb 77f
1:00am 15 16 mph 1013.7mb 77f
12:00am 15 16 mph 1014.2mb 77f
Mon 05/22 11:00pm 15 16 mph 1014.6mb 77f
10:00pm 11 13 mph 1015mb 77f
9:00pm 13 13 mph 1014.9mb 77f
8:00pm 13 14 mph 1014.7mb 77f
7:00pm 14 15 mph 1014.6mb 77f
6:00pm 14 15 mph 1014.6mb 77f
5:00pm 13 15 mph 1014.7mb 77f
4:00pm 15 16 mph 1015.2mb 78f
3:00pm 11 14 mph 1015.7mb 78f
2:00pm 11 13 mph 1016.9mb 78f
1:00pm 14 14 mph 1016.9mb 77f
12:00pm 13 14 mph 1017.4mb 77f
11:00am 10 10 mph 1018.3mb 77f
10:00am 9 9 mph 1018.4mb 77f
9:00am 10 10 mph 1018.4mb 76f
8:00am 8 9 mph 1018.6mb 76f
7:00am 10 10 mph 1018mb 76f